createdAt,value
2023-03-18T00:18:38.158Z,6.02
2023-03-18T00:21:57.909Z,5.92
2023-03-18T00:24:32.062Z,5.88
2023-03-18T00:27:02.509Z,5.83
2023-03-18T00:29:30.501Z,5.78
2023-03-18T00:32:04.207Z,5.78
2023-03-18T00:34:51.209Z,5.74
2023-03-18T00:37:31.121Z,5.71
2023-03-18T00:40:07.210Z,5.72
2023-03-18T00:43:08.125Z,5.77
2023-03-18T00:46:00.704Z,5.79
2023-03-18T00:52:25.526Z,5.71
2023-03-18T00:56:52.853Z,5.69
2023-03-18T00:59:30.589Z,5.74
2023-03-18T01:02:25.421Z,5.71
2023-03-18T01:05:29.051Z,5.77
2023-03-18T01:11:04.253Z,5.77
2023-03-18T01:15:32.347Z,5.73
2023-03-18T01:29:27.919Z,5.63
2023-03-18T01:32:35.002Z,5.57
2023-03-18T01:59:56.097Z,5.31
2023-03-18T02:10:13.502Z,5.36
2023-03-18T02:13:37.667Z,5.37
2023-03-18T02:17:19.013Z,5.39
2023-03-18T02:31:59.399Z,5.56
2023-03-18T02:34:52.078Z,5.53
2023-03-18T02:37:38.204Z,5.47
2023-03-18T02:40:50.663Z,5.37
2023-03-18T02:43:32.828Z,5.41
2023-03-18T02:46:44.747Z,5.41
2023-03-18T02:50:13.157Z,5.49
2023-03-18T02:52:57.332Z,5.42
2023-03-18T02:55:48.039Z,5.32
2023-03-18T02:58:19.685Z,5.24
2023-03-18T03:00:49.496Z,5.20
2023-03-18T03:03:18.721Z,5.14
2023-03-18T03:05:53.315Z,5.11
2023-03-18T03:08:25.005Z,5.14
2023-03-18T03:10:54.933Z,5.19
2023-03-18T03:13:27.134Z,5.19
2023-03-18T03:15:58.109Z,5.16
2023-03-18T03:18:27.059Z,5.13
2023-03-18T03:20:58.303Z,5.13
2023-03-18T03:23:28.135Z,5.09
2023-03-18T03:26:04.070Z,5.11
2023-03-18T03:28:56.612Z,5.18
2023-03-18T03:31:41.376Z,5.24
2023-03-18T03:44:44.015Z,5.12
2023-03-18T03:47:24.514Z,5.09
2023-03-18T03:50:18.643Z,5.04
2023-03-18T03:53:18.504Z,4.95
2023-03-18T03:58:47.333Z,5.09
2023-03-18T04:01:29.782Z,5.11
2023-03-18T04:04:03.268Z,5.17
2023-03-18T04:06:34.605Z,5.23
2023-03-18T04:12:45.228Z,5.17
2023-03-18T04:15:32.199Z,5.10
2023-03-18T04:18:13.006Z,5.06
2023-03-18T04:21:05.574Z,5.02
2023-03-18T04:23:53.573Z,5.06
2023-03-18T04:29:52.030Z,5.04
2023-03-18T04:32:47.918Z,4.98
2023-03-18T04:35:54.255Z,4.94
2023-03-18T04:38:25.746Z,4.94
2023-03-18T04:41:04.626Z,4.89
2023-03-18T04:43:56.463Z,4.88
2023-03-18T04:46:34.325Z,4.89
2023-03-18T04:49:05.096Z,4.89
2023-03-18T04:51:34.119Z,4.94
2023-03-18T04:54:22.669Z,4.99
2023-03-18T04:56:53.515Z,5.05
2023-03-18T04:59:28.814Z,5.07
2023-03-18T05:01:58.612Z,5.06
2023-03-18T05:06:01.007Z,5.00
2023-03-18T05:09:08.960Z,4.89
2023-03-18T05:11:49.801Z,4.89
2023-03-18T05:14:44.223Z,4.90
2023-03-18T05:17:59.983Z,4.89
2023-03-18T05:20:38.339Z,4.91
2023-03-18T05:23:44.532Z,4.97
2023-03-18T05:26:24.188Z,5.01
2023-03-18T05:29:00.583Z,5.02
2023-03-18T05:39:55.019Z,5.18
2023-03-18T05:42:27.821Z,5.19
2023-03-18T05:45:02.408Z,5.15
2023-03-18T05:47:38.085Z,5.10
2023-03-18T05:50:14.172Z,5.13
2023-03-18T05:52:44.899Z,5.14
2023-03-18T05:55:20.802Z,5.12
2023-03-18T05:57:50.840Z,5.11
2023-03-18T06:00:20.321Z,5.06
2023-03-18T06:02:51.096Z,5.02
2023-03-18T06:05:21.561Z,5.09
2023-03-18T06:07:50.405Z,5.13
2023-03-18T06:10:19.881Z,5.08
2023-03-18T06:12:51.707Z,5.04
2023-03-18T06:15:23.833Z,5.02
2023-03-18T06:17:54.510Z,5.04
2023-03-18T06:32:10.818Z,5.22
2023-03-18T06:58:45.085Z,5.34
2023-03-18T17:34:03.763Z,5.43
2023-03-18T18:16:08.876Z,5.10
2023-03-18T18:18:41.411Z,5.11
2023-03-18T18:24:37.174Z,5.09
2023-03-18T18:27:19.949Z,5.11
2023-03-18T18:33:42.676Z,5.17
2023-03-18T18:47:50.113Z,5.16
2023-03-18T18:50:38.113Z,5.14
2023-03-18T19:15:47.457Z,5.23
2023-03-18T19:36:54.005Z,5.15
2023-03-18T19:39:40.914Z,5.17
2023-03-18T20:06:32.718Z,5.16
2023-03-18T20:44:22.146Z,5.25
2023-03-18T20:53:52.984Z,5.29
2023-03-18T20:56:53.943Z,5.27
2023-03-18T20:59:27.409Z,5.23
2023-03-18T21:01:56.333Z,5.22
2023-03-18T21:04:27.392Z,5.23
2023-03-18T21:09:55.961Z,5.16
2023-03-18T21:18:40.566Z,4.98
2023-03-18T21:21:33.009Z,4.90
2023-03-18T21:24:01.954Z,4.88
2023-03-18T21:29:22.710Z,4.93
2023-03-18T21:31:54.176Z,5.00
2023-03-18T21:34:25.719Z,5.03
2023-03-18T21:36:59.488Z,5.06
2023-03-18T21:39:36.561Z,5.09
2023-03-18T21:48:09.255Z,5.08
2023-03-18T21:54:00.132Z,5.04
2023-03-18T21:56:34.017Z,5.02
2023-03-18T21:59:03.462Z,5.06
2023-03-18T22:01:39.209Z,5.09
2023-03-18T22:04:08.600Z,5.10
2023-03-18T22:06:38.794Z,5.10
2023-03-18T22:09:14.708Z,5.10
2023-03-18T22:12:06.684Z,5.09
2023-03-18T22:14:39.357Z,5.10
2023-03-18T22:17:33.519Z,5.05
2023-03-18T22:20:03.419Z,5.02
2023-03-18T22:22:37.004Z,5.03
2023-03-18T22:25:42.612Z,4.97
2023-03-18T22:28:15.218Z,4.95
2023-03-18T22:30:46.525Z,4.96
2023-03-18T22:33:20.407Z,4.93
2023-03-18T22:35:49.123Z,4.92
2023-03-18T22:38:21.738Z,4.95
2023-03-18T22:40:53.387Z,4.92
2023-03-18T22:43:27.967Z,4.90
2023-03-18T22:45:59.034Z,4.85
2023-03-18T22:48:29.654Z,4.82
2023-03-18T22:51:00.112Z,4.81
2023-03-18T22:53:39.762Z,4.84
2023-03-18T22:56:14.065Z,4.85
2023-03-18T22:58:44.073Z,4.91
2023-03-18T23:01:28.882Z,4.91
2023-03-18T23:04:05.392Z,4.90
2023-03-18T23:06:35.514Z,4.94
2023-03-18T23:09:06.260Z,4.89
2023-03-18T23:11:34.937Z,4.87
2023-03-18T23:14:04.934Z,4.83
2023-03-18T23:16:34.083Z,4.81
2023-03-18T23:19:02.813Z,4.79
2023-03-18T23:21:37.577Z,4.82
2023-03-18T23:24:06.652Z,4.84
2023-03-18T23:26:36.964Z,4.86
2023-03-18T23:29:06.879Z,4.88
2023-03-18T23:31:35.803Z,4.89
2023-03-18T23:34:07.997Z,4.88
2023-03-18T23:36:37.651Z,4.92
2023-03-18T23:39:10.645Z,4.93
2023-03-18T23:41:42.825Z,4.91
2023-03-18T23:44:11.530Z,4.88
2023-03-18T23:46:42.483Z,4.85
2023-03-18T23:49:13.992Z,4.78
2023-03-18T23:51:45.275Z,4.74
2023-03-18T23:54:13.960Z,4.74
2023-03-18T23:56:54.823Z,4.74
2023-03-18T23:59:26.196Z,4.74
